createdAt,value
2022-08-20T00:01:03.357Z,20.10
2022-08-20T00:03:33.434Z,20.10
2022-08-20T00:06:05.272Z,20.00
2022-08-20T00:08:34.947Z,20.00
2022-08-20T00:11:04.037Z,20.00
2022-08-20T00:13:34.750Z,19.90
2022-08-20T00:16:02.643Z,19.90
2022-08-20T00:18:29.776Z,19.80
2022-08-20T00:20:57.227Z,19.80
2022-08-20T00:23:24.972Z,19.90
2022-08-20T00:25:52.267Z,19.90
2022-08-20T00:28:19.767Z,19.90
2022-08-20T00:30:47.389Z,19.80
2022-08-20T00:33:19.062Z,19.80
2022-08-20T00:35:49.903Z,19.80
2022-08-20T00:38:16.957Z,19.80
2022-08-20T00:40:53.571Z,19.80
2022-08-20T00:43:30.749Z,19.80
2022-08-20T00:45:59.921Z,19.80
2022-08-20T00:48:32.215Z,19.70
2022-08-20T00:51:15.360Z,19.80
2022-08-20T00:53:42.516Z,19.80
2022-08-20T00:56:11.107Z,19.80
2022-08-20T00:58:38.431Z,19.80
2022-08-20T01:01:06.437Z,19.70
2022-08-20T01:03:34.114Z,19.70
2022-08-20T01:06:01.668Z,19.70
2022-08-20T01:08:28.788Z,19.70
2022-08-20T01:11:08.538Z,19.70
2022-08-20T01:13:38.472Z,19.70
2022-08-20T01:16:34.114Z,19.70
2022-08-20T01:19:01.684Z,19.60
2022-08-20T01:21:28.800Z,19.60
2022-08-20T01:24:17.587Z,19.60
2022-08-20T01:26:45.256Z,19.70
2022-08-20T01:29:15.233Z,19.60
2022-08-20T01:31:42.354Z,19.60
2022-08-20T01:34:13.885Z,19.60
2022-08-20T01:36:50.524Z,19.50
2022-08-20T01:39:23.759Z,19.50
2022-08-20T01:42:15.907Z,19.50
2022-08-20T01:44:44.702Z,19.60
2022-08-20T01:47:16.040Z,19.60
2022-08-20T01:49:51.122Z,19.60
2022-08-20T01:52:38.527Z,19.60
2022-08-20T01:55:06.058Z,19.50
2022-08-20T01:57:36.186Z,19.60
2022-08-20T02:00:08.281Z,19.60
2022-08-20T02:02:38.125Z,19.50
2022-08-20T02:05:05.210Z,19.50
2022-08-20T02:07:32.768Z,19.50
2022-08-20T02:10:00.300Z,19.60
2022-08-20T02:12:27.223Z,19.30
2022-08-20T02:14:55.103Z,19.40
2022-08-20T02:17:23.281Z,19.40
2022-08-20T02:19:53.937Z,19.50
2022-08-20T02:22:22.926Z,19.50
2022-08-20T02:24:51.474Z,19.50
2022-08-20T02:27:19.052Z,19.50
2022-08-20T02:29:46.966Z,19.50
2022-08-20T02:32:32.769Z,19.30
2022-08-20T02:35:03.944Z,19.20
2022-08-20T02:37:31.134Z,19.30
2022-08-20T02:39:58.200Z,19.40
2022-08-20T02:42:26.532Z,19.40
2022-08-20T02:44:54.449Z,19.30
2022-08-20T02:47:21.443Z,19.30
2022-08-20T02:49:48.445Z,19.40
2022-08-20T02:52:15.368Z,19.40
2022-08-20T02:54:42.392Z,19.30
2022-08-20T02:57:16.664Z,19.30
2022-08-20T02:59:44.662Z,19.40
2022-08-20T03:02:12.151Z,19.20
2022-08-20T03:04:39.283Z,19.20
2022-08-20T03:07:07.165Z,19.10
2022-08-20T03:09:34.151Z,19.10
2022-08-20T03:12:03.514Z,19.10
2022-08-20T03:14:30.473Z,19.00
2022-08-20T03:16:57.404Z,19.00
2022-08-20T03:19:24.686Z,19.00
2022-08-20T03:21:51.842Z,19.00
2022-08-20T03:24:19.230Z,19.00
2022-08-20T03:26:46.540Z,19.00
2022-08-20T03:29:13.721Z,19.10
2022-08-20T03:31:40.670Z,19.10
2022-08-20T03:34:07.717Z,19.00
2022-08-20T03:36:34.725Z,19.00
2022-08-20T03:39:04.798Z,19.00
2022-08-20T03:41:32.666Z,18.90
2022-08-20T03:43:59.867Z,19.00
2022-08-20T03:46:26.876Z,18.90
2022-08-20T03:49:00.091Z,18.90
2022-08-20T03:51:31.040Z,19.00
2022-08-20T03:53:58.672Z,18.90
2022-08-20T03:56:26.004Z,18.80
2022-08-20T03:58:52.957Z,18.80
2022-08-20T04:01:45.526Z,18.90
2022-08-20T04:04:12.512Z,19.00
2022-08-20T04:06:40.475Z,19.00
2022-08-20T04:09:09.709Z,19.00
2022-08-20T04:11:39.416Z,19.00
2022-08-20T04:14:06.323Z,19.00
2022-08-20T04:16:34.496Z,18.90
2022-08-20T04:19:03.661Z,19.00
2022-08-20T04:21:33.159Z,19.00
2022-08-20T04:24:04.641Z,19.00
2022-08-20T04:26:31.948Z,19.00
2022-08-20T04:28:59.062Z,19.00
2022-08-20T04:31:33.670Z,19.00
2022-08-20T04:34:07.955Z,19.00
2022-08-20T04:36:37.819Z,19.00
2022-08-20T04:39:04.774Z,18.90
2022-08-20T04:41:31.745Z,18.90
2022-08-20T04:43:58.750Z,18.80
2022-08-20T04:46:28.970Z,18.80
2022-08-20T04:48:56.678Z,18.80
2022-08-20T04:51:24.236Z,18.80
2022-08-20T04:53:53.962Z,18.80
2022-08-20T04:56:27.938Z,18.80
2022-08-20T04:58:56.482Z,18.90
2022-08-20T05:01:24.054Z,18.90
2022-08-20T05:03:53.865Z,18.80
2022-08-20T05:06:21.161Z,18.80
2022-08-20T05:08:48.116Z,18.80
2022-08-20T05:11:35.012Z,18.70
2022-08-20T05:14:03.868Z,18.60
2022-08-20T05:16:33.153Z,18.60
2022-08-20T05:19:00.322Z,18.60
2022-08-20T05:21:27.351Z,18.70
2022-08-20T05:23:54.438Z,18.70
2022-08-20T05:26:22.965Z,18.60
2022-08-20T05:28:57.935Z,18.70
2022-08-20T05:31:32.294Z,18.70
2022-08-20T05:34:12.226Z,18.70
2022-08-20T05:36:47.008Z,18.60
2022-08-20T05:39:18.379Z,18.50
2022-08-20T05:41:45.600Z,18.50
2022-08-20T05:44:15.650Z,18.50
2022-08-20T05:46:45.305Z,18.50
2022-08-20T05:49:16.675Z,18.40
2022-08-20T05:51:44.138Z,18.40
2022-08-20T05:54:11.605Z,18.40
2022-08-20T05:56:39.685Z,18.40
2022-08-20T05:59:09.079Z,18.40
2022-08-20T06:01:38.552Z,18.40
2022-08-20T06:04:24.870Z,18.40
2022-08-20T06:06:55.360Z,18.30
2022-08-20T06:09:30.986Z,18.30
2022-08-20T06:12:06.650Z,18.30
2022-08-20T06:14:34.470Z,18.30
2022-08-20T06:17:13.729Z,18.40
2022-08-20T06:19:44.727Z,18.40
2022-08-20T06:22:18.774Z,18.40
2022-08-20T06:24:51.978Z,18.40
2022-08-20T06:27:19.629Z,18.40
2022-08-20T06:29:46.638Z,18.40
2022-08-20T06:32:15.772Z,18.40
2022-08-20T06:34:49.890Z,18.50
2022-08-20T06:37:31.166Z,18.40
2022-08-20T06:40:16.836Z,18.40
2022-08-20T06:42:48.286Z,18.40
2022-08-20T06:45:20.853Z,18.50
2022-08-20T06:47:48.456Z,18.60
2022-08-20T06:50:20.601Z,18.80
2022-08-20T06:53:03.213Z,18.80
2022-08-20T06:55:30.742Z,18.90
2022-08-20T06:58:07.282Z,19.00
2022-08-20T07:00:49.906Z,19.10
2022-08-20T07:03:17.124Z,19.10
2022-08-20T07:05:45.047Z,19.20
2022-08-20T07:08:22.425Z,19.50
2022-08-20T07:10:49.750Z,19.70
2022-08-20T07:13:16.802Z,20.00
2022-08-20T07:15:45.388Z,20.20
2022-08-20T07:18:14.143Z,20.50
2022-08-20T07:20:41.645Z,20.60
2022-08-20T07:23:12.078Z,20.70
2022-08-20T07:25:41.752Z,20.90
2022-08-20T07:28:17.404Z,21.10
2022-08-20T07:31:12.044Z,21.00
2022-08-20T07:33:40.945Z,20.80
2022-08-20T07:36:09.537Z,21.10
2022-08-20T07:38:36.813Z,20.90
2022-08-20T07:41:08.620Z,21.30
2022-08-20T07:43:35.730Z,21.40
2022-08-20T07:46:09.003Z,21.40
2022-08-20T07:48:39.645Z,21.30
2022-08-20T07:51:07.567Z,21.50
2022-08-20T07:53:36.306Z,21.40
2022-08-20T07:56:09.021Z,21.20
2022-08-20T07:58:36.858Z,21.50
2022-08-20T08:01:05.856Z,21.20
2022-08-20T08:03:40.460Z,21.20
2022-08-20T08:06:29.230Z,21.50
2022-08-20T08:09:17.929Z,21.70
2022-08-20T08:11:50.793Z,21.50
2022-08-20T08:14:23.602Z,21.50
2022-08-20T08:16:50.743Z,21.90
2022-08-20T08:19:17.727Z,21.90
2022-08-20T08:21:44.795Z,22.10
2022-08-20T08:24:15.497Z,22.30
2022-08-20T08:26:46.666Z,22.40
2022-08-20T08:29:13.769Z,22.40
2022-08-20T08:31:41.376Z,22.40
2022-08-20T08:34:08.637Z,22.30
2022-08-20T08:36:35.655Z,22.30
2022-08-20T08:39:02.929Z,22.60
2022-08-20T08:41:49.628Z,22.60
2022-08-20T08:44:25.078Z,22.70
2022-08-20T08:46:59.470Z,22.70
2022-08-20T08:49:37.706Z,22.80
2022-08-20T08:52:28.987Z,22.80
2022-08-20T08:54:59.534Z,22.80
2022-08-20T08:57:27.189Z,22.40
2022-08-20T09:00:04.876Z,22.60
2022-08-20T09:02:33.014Z,22.10
2022-08-20T09:05:01.025Z,22.00
2022-08-20T09:07:31.746Z,22.30
2022-08-20T09:09:59.047Z,22.00
2022-08-20T09:12:28.009Z,21.80
2022-08-20T09:14:55.033Z,21.80
2022-08-20T09:17:24.419Z,22.40
2022-08-20T09:19:52.701Z,22.70
2022-08-20T09:22:22.216Z,22.70
2022-08-20T09:24:50.032Z,22.70
2022-08-20T09:27:17.253Z,22.50
2022-08-20T09:29:44.266Z,22.50
2022-08-20T09:32:16.453Z,22.40
2022-08-20T09:34:46.146Z,22.50
2022-08-20T09:37:13.751Z,22.20
2022-08-20T09:39:40.908Z,22.10
2022-08-20T09:42:14.184Z,22.00
2022-08-20T09:44:41.651Z,22.00
2022-08-20T09:47:10.391Z,22.10
2022-08-20T09:49:38.196Z,21.80
2022-08-20T09:52:07.394Z,21.80
2022-08-20T09:54:34.846Z,22.00
2022-08-20T09:57:06.201Z,22.30
2022-08-20T09:59:33.643Z,22.40
2022-08-20T10:02:00.687Z,22.50
2022-08-20T10:04:28.067Z,22.60
2022-08-20T10:06:55.000Z,22.30
2022-08-20T10:09:21.955Z,21.90
2022-08-20T10:11:49.174Z,22.00
2022-08-20T10:14:16.115Z,21.90
2022-08-20T10:16:43.267Z,21.70
2022-08-20T10:19:10.726Z,21.70
2022-08-20T10:21:38.982Z,22.00
2022-08-20T10:24:06.340Z,22.30
2022-08-20T10:26:33.411Z,22.50
2022-08-20T10:29:00.766Z,22.50
2022-08-20T10:31:27.690Z,22.60
2022-08-20T10:33:54.744Z,22.80
2022-08-20T10:36:21.801Z,22.70
2022-08-20T10:38:49.250Z,22.60
2022-08-20T10:41:16.642Z,22.60
2022-08-20T10:43:43.716Z,22.60
2022-08-20T10:46:10.726Z,22.60
2022-08-20T10:48:37.986Z,22.70
2022-08-20T10:51:04.985Z,22.70
2022-08-20T10:53:32.545Z,22.60
2022-08-20T10:56:02.334Z,22.60
2022-08-20T10:58:37.653Z,22.70
2022-08-20T11:01:07.086Z,22.80
2022-08-20T11:03:34.888Z,22.80
2022-08-20T11:06:04.923Z,22.80
2022-08-20T11:08:34.076Z,22.80
2022-08-20T11:11:03.872Z,22.90
2022-08-20T11:13:30.867Z,23.00
2022-08-20T11:15:57.991Z,22.80
2022-08-20T11:18:24.936Z,22.80
2022-08-20T11:20:52.432Z,22.90
2022-08-20T11:23:19.596Z,22.90
2022-08-20T11:25:46.609Z,23.10
2022-08-20T11:28:13.618Z,23.00
2022-08-20T11:30:40.704Z,23.10
2022-08-20T11:33:07.768Z,23.10
2022-08-20T11:35:48.425Z,23.00
2022-08-20T11:38:17.350Z,23.20
2022-08-20T11:40:44.345Z,23.20
2022-08-20T11:43:15.053Z,23.50
2022-08-20T11:45:44.761Z,23.50
2022-08-20T11:48:11.718Z,23.60
2022-08-20T11:50:38.732Z,23.40
2022-08-20T11:53:05.936Z,23.50
2022-08-20T11:55:35.338Z,23.40
2022-08-20T11:58:02.961Z,23.50
2022-08-20T12:00:32.639Z,23.70
2022-08-20T12:03:05.517Z,23.70
2022-08-20T12:05:36.746Z,23.90
2022-08-20T12:08:04.114Z,23.70
2022-08-20T12:10:31.721Z,23.90
2022-08-20T12:12:59.280Z,23.70
2022-08-20T12:15:27.649Z,23.80
2022-08-20T12:17:54.978Z,23.80
2022-08-20T12:20:23.351Z,23.70
2022-08-20T12:22:50.838Z,23.40
2022-08-20T12:25:17.905Z,23.30
2022-08-20T12:27:45.953Z,23.20
2022-08-20T12:30:15.732Z,23.20
2022-08-20T12:32:42.795Z,23.40
2022-08-20T12:35:10.959Z,23.70
2022-08-20T12:37:38.338Z,23.80
2022-08-20T12:40:08.420Z,24.00
2022-08-20T12:42:35.710Z,23.80
2022-08-20T12:45:03.621Z,23.90
2022-08-20T12:47:35.761Z,24.00
2022-08-20T12:50:08.554Z,24.00
2022-08-20T12:52:35.834Z,24.10
2022-08-20T12:55:04.061Z,24.20
2022-08-20T12:57:36.009Z,24.10
2022-08-20T13:00:11.925Z,24.00
2022-08-20T13:02:41.364Z,24.00
2022-08-20T13:05:09.674Z,24.00
2022-08-20T13:07:37.678Z,23.90
2022-08-20T13:10:06.101Z,24.00
2022-08-20T13:12:33.309Z,24.00
2022-08-20T13:15:00.655Z,24.00
2022-08-20T13:17:39.164Z,23.90
2022-08-20T13:20:15.124Z,24.00
2022-08-20T13:22:42.487Z,24.40
2022-08-20T13:25:10.436Z,24.40
2022-08-20T13:27:38.537Z,24.40
2022-08-20T13:30:07.728Z,24.30
2022-08-20T13:32:34.876Z,24.30
2022-08-20T13:35:02.017Z,24.30
2022-08-20T13:37:30.052Z,24.30
2022-08-20T13:39:58.006Z,24.50
2022-08-20T13:42:26.022Z,24.40
2022-08-20T13:44:53.939Z,24.30
2022-08-20T13:47:32.964Z,24.40
2022-08-20T13:50:15.825Z,24.30
2022-08-20T13:52:43.287Z,24.20
2022-08-20T13:55:12.412Z,23.80
2022-08-20T13:57:40.171Z,23.60
2022-08-20T14:00:11.899Z,23.30
2022-08-20T14:02:39.642Z,23.70
2022-08-20T14:05:07.055Z,24.00
2022-08-20T14:07:34.290Z,23.80
2022-08-20T14:10:09.138Z,23.90
2022-08-20T14:12:37.076Z,24.00
2022-08-20T14:15:04.461Z,24.20
2022-08-20T14:17:36.394Z,24.40
2022-08-20T14:20:10.691Z,24.60
2022-08-20T14:22:38.166Z,24.50
2022-08-20T14:25:06.748Z,24.30
2022-08-20T14:27:34.089Z,24.20
2022-08-20T14:30:01.724Z,23.80
2022-08-20T14:32:28.904Z,23.70
2022-08-20T14:34:57.212Z,23.90
2022-08-20T14:37:27.868Z,23.90
2022-08-20T14:39:57.200Z,24.20
2022-08-20T14:42:27.179Z,24.30
2022-08-20T14:44:57.452Z,24.40
2022-08-20T14:47:30.531Z,24.20
2022-08-20T14:50:05.485Z,24.30
2022-08-20T14:52:36.542Z,24.50
2022-08-20T14:55:05.142Z,24.40
2022-08-20T14:57:32.596Z,24.40
2022-08-20T15:00:02.967Z,24.40
2022-08-20T15:02:31.667Z,24.30
2022-08-20T15:04:58.954Z,24.20
2022-08-20T15:07:30.155Z,24.10
2022-08-20T15:09:57.376Z,24.20
2022-08-20T15:12:24.545Z,24.20
2022-08-20T15:14:51.536Z,24.30
2022-08-20T15:17:27.068Z,24.40
2022-08-20T15:19:54.496Z,24.20
2022-08-20T15:22:22.308Z,24.30
2022-08-20T15:24:49.730Z,24.20
2022-08-20T15:27:24.497Z,24.10
2022-08-20T15:29:52.115Z,24.20
2022-08-20T15:32:19.942Z,24.20
2022-08-20T15:34:46.932Z,24.20
2022-08-20T15:37:18.901Z,24.30
2022-08-20T15:39:46.290Z,24.30
2022-08-20T15:42:13.762Z,24.20
2022-08-20T15:44:42.115Z,24.00
2022-08-20T15:47:43.484Z,23.90
2022-08-20T15:50:18.748Z,23.70
2022-08-20T15:52:45.824Z,23.80
2022-08-20T15:55:14.935Z,23.80
2022-08-20T15:58:30.532Z,23.40
2022-08-20T16:01:25.257Z,23.40
2022-08-20T16:04:16.744Z,23.30
2022-08-20T16:06:43.683Z,23.30
2022-08-20T16:09:20.805Z,23.30
2022-08-20T16:11:47.589Z,23.20
2022-08-20T16:14:19.351Z,23.20
2022-08-20T16:16:59.080Z,23.20
2022-08-20T16:19:35.340Z,23.00
2022-08-20T16:22:02.889Z,22.90
2022-08-20T16:24:33.224Z,22.90
2022-08-20T16:27:13.612Z,22.90
2022-08-20T16:30:11.931Z,22.70
2022-08-20T16:32:43.083Z,22.70
2022-08-20T16:35:30.163Z,22.60
2022-08-20T16:38:20.865Z,22.40
2022-08-20T16:41:00.909Z,22.30
2022-08-20T16:43:55.560Z,22.40
2022-08-20T16:46:27.900Z,22.20
2022-08-20T16:49:00.780Z,22.20
2022-08-20T16:51:41.639Z,22.20
2022-08-20T16:54:09.776Z,22.30
2022-08-20T16:56:47.000Z,22.30
2022-08-20T16:59:27.194Z,22.30
2022-08-20T17:02:10.525Z,22.20
2022-08-20T17:04:58.751Z,22.10
2022-08-20T17:07:46.451Z,22.30
2022-08-20T17:10:34.254Z,22.30
2022-08-20T17:13:17.340Z,22.40
2022-08-20T17:15:52.394Z,22.30
2022-08-20T17:18:32.175Z,22.40
2022-08-20T17:21:29.069Z,22.20
2022-08-20T17:24:30.371Z,22.10
2022-08-20T17:27:04.919Z,22.10
2022-08-20T17:29:56.913Z,22.00
2022-08-20T17:32:26.289Z,22.00
2022-08-20T17:34:59.166Z,21.90
2022-08-20T17:37:40.628Z,21.80
2022-08-20T17:40:27.134Z,21.80
2022-08-20T17:43:05.288Z,21.60
2022-08-20T17:45:44.866Z,21.60
2022-08-20T17:48:30.299Z,21.60
2022-08-20T17:50:58.875Z,21.70
2022-08-20T17:53:34.464Z,21.80
2022-08-20T17:56:21.956Z,21.70
2022-08-20T17:58:55.933Z,21.80
2022-08-20T18:01:26.052Z,21.80
2022-08-20T18:03:53.770Z,21.60
2022-08-20T18:06:34.893Z,21.50
2022-08-20T18:09:40.820Z,21.40
2022-08-20T18:12:59.844Z,21.30
2022-08-20T18:15:36.386Z,21.50
2022-08-20T18:18:30.157Z,21.60
2022-08-20T18:21:12.557Z,21.60
2022-08-20T18:24:03.239Z,21.20
2022-08-20T18:26:44.832Z,21.10
2022-08-20T18:29:17.558Z,21.20
2022-08-20T18:31:51.635Z,21.20
2022-08-20T18:34:34.286Z,21.20
2022-08-20T18:37:14.153Z,21.30
2022-08-20T18:39:45.713Z,21.40
2022-08-20T18:42:33.742Z,21.40
2022-08-20T18:45:01.845Z,21.40
2022-08-20T18:47:35.178Z,21.30
2022-08-20T18:50:23.409Z,21.20
2022-08-20T18:53:24.021Z,21.10
2022-08-20T18:56:08.771Z,21.10
2022-08-20T18:59:18.801Z,21.10
2022-08-20T19:01:48.920Z,21.00
2022-08-20T19:04:34.530Z,21.00
2022-08-20T19:07:06.680Z,21.00
2022-08-20T19:10:03.785Z,21.00
2022-08-20T19:12:38.877Z,20.90
2022-08-20T19:15:12.924Z,20.90
2022-08-20T19:17:51.937Z,20.90
2022-08-20T19:20:21.647Z,20.90
2022-08-20T19:22:49.705Z,20.70
2022-08-20T19:25:34.050Z,20.70
2022-08-20T19:28:06.879Z,20.80
2022-08-20T19:30:40.611Z,20.70
2022-08-20T19:33:08.053Z,20.70
2022-08-20T19:35:35.733Z,20.60
2022-08-20T19:38:06.893Z,20.50
2022-08-20T19:40:39.273Z,20.50
2022-08-20T19:43:11.381Z,20.50
2022-08-20T19:45:50.727Z,20.60
2022-08-20T19:49:05.887Z,20.60
2022-08-20T19:51:55.912Z,20.50
2022-08-20T19:54:27.758Z,20.50
2022-08-20T19:57:00.131Z,20.30
2022-08-20T19:59:27.488Z,20.20
2022-08-20T20:02:02.931Z,20.30
2022-08-20T20:04:40.008Z,20.30
2022-08-20T20:07:22.396Z,20.20
2022-08-20T20:09:54.330Z,20.10
2022-08-20T20:12:23.047Z,20.10
2022-08-20T20:14:52.034Z,20.00
2022-08-20T20:17:24.738Z,19.90
2022-08-20T20:19:56.582Z,19.70
2022-08-20T20:22:31.589Z,19.60
2022-08-20T20:25:03.635Z,19.60
2022-08-20T20:27:32.175Z,19.70
2022-08-20T20:30:08.293Z,19.70
2022-08-20T20:32:35.398Z,19.70
2022-08-20T20:35:04.797Z,19.60
2022-08-20T20:37:50.510Z,19.60
2022-08-20T20:40:27.303Z,19.60
2022-08-20T20:43:04.827Z,19.50
2022-08-20T20:45:42.729Z,19.40
2022-08-20T20:48:16.161Z,19.40
2022-08-20T20:50:46.878Z,19.30
2022-08-20T20:53:15.649Z,19.30
2022-08-20T20:55:42.839Z,19.20
2022-08-20T20:58:09.768Z,19.20
2022-08-20T21:00:36.781Z,19.20
2022-08-20T21:03:04.052Z,19.00
2022-08-20T21:05:31.883Z,18.90
2022-08-20T21:08:03.677Z,18.90
2022-08-20T21:10:33.007Z,19.00
2022-08-20T21:13:00.855Z,18.70
2022-08-20T21:15:27.958Z,18.60
2022-08-20T21:17:57.951Z,18.70
2022-08-20T21:20:25.356Z,18.60
2022-08-20T21:22:52.322Z,18.70
2022-08-20T21:25:20.564Z,18.80
2022-08-20T21:27:49.886Z,18.60
2022-08-20T21:30:17.413Z,18.60
2022-08-20T21:32:44.589Z,18.60
2022-08-20T21:35:11.993Z,18.60
2022-08-20T21:37:38.976Z,18.50
2022-08-20T21:40:08.295Z,18.50
2022-08-20T21:42:37.110Z,18.30
2022-08-20T21:45:06.631Z,18.20
2022-08-20T21:47:33.799Z,18.10
2022-08-20T21:50:00.872Z,18.10
2022-08-20T21:52:27.875Z,18.10
2022-08-20T21:54:54.914Z,18.10
2022-08-20T21:57:24.165Z,18.10
2022-08-20T21:59:51.315Z,18.00
2022-08-20T22:02:18.693Z,17.90
2022-08-20T22:04:45.732Z,18.10
2022-08-20T22:07:12.930Z,18.00
2022-08-20T22:09:39.859Z,18.10
2022-08-20T22:12:10.226Z,18.10
2022-08-20T22:14:37.279Z,18.10
2022-08-20T22:17:04.363Z,18.10
2022-08-20T22:19:31.701Z,18.00
2022-08-20T22:21:59.027Z,18.10
2022-08-20T22:24:27.737Z,18.00
2022-08-20T22:26:54.679Z,18.00
2022-08-20T22:29:21.799Z,18.00
2022-08-20T22:31:48.818Z,18.10
2022-08-20T22:34:17.206Z,18.10
2022-08-20T22:36:47.117Z,18.10
2022-08-20T22:39:14.133Z,18.10
2022-08-20T22:41:41.269Z,18.10
2022-08-20T22:44:08.628Z,17.90
2022-08-20T22:46:42.489Z,17.70
2022-08-20T22:49:14.135Z,17.70
2022-08-20T22:51:41.770Z,17.70
2022-08-20T22:54:10.725Z,17.70
2022-08-20T22:56:38.145Z,17.60
2022-08-20T22:59:07.903Z,17.60
2022-08-20T23:01:35.061Z,17.60
2022-08-20T23:04:31.792Z,17.50
2022-08-20T23:07:00.805Z,17.50
2022-08-20T23:09:28.105Z,17.50
2022-08-20T23:11:57.238Z,17.40
2022-08-20T23:14:27.070Z,17.30
2022-08-20T23:17:15.561Z,17.30
2022-08-20T23:19:42.577Z,17.40
2022-08-20T23:22:09.519Z,17.30
2022-08-20T23:24:37.075Z,17.30
2022-08-20T23:27:06.082Z,17.30
2022-08-20T23:29:33.533Z,17.30
2022-08-20T23:32:00.611Z,17.30
2022-08-20T23:34:30.702Z,17.30
2022-08-20T23:36:58.017Z,17.20
2022-08-20T23:39:25.538Z,17.10
2022-08-20T23:41:53.538Z,17.20
2022-08-20T23:44:25.769Z,17.20
2022-08-20T23:46:56.392Z,17.30
2022-08-20T23:49:23.329Z,17.20
2022-08-20T23:51:50.283Z,17.20
2022-08-20T23:54:18.302Z,17.20
2022-08-20T23:56:45.242Z,17.20
2022-08-20T23:59:12.172Z,17.20
